Terminal Aerodrome Forecast
Issued by NWS

Home | Current Version | Previous Version | Text Only | Print | Product List | Glossary On
Versions: 1 2 3 4 5 6 7 8 9 10 11 12 13 14 15 16 17 18 19 20 21 22
424
FTUS43 KILX 241120
TAFDEC
TAF
KDEC 241120Z 2412/2512 31008KT P6SM FEW250
     FM241700 30012G20KT P6SM FEW200
     FM250100 29007KT P6SM FEW250=

USA.gov is the U.S. government's official web portal to all federal, state and local government web resources and services.